Time;durP1;ratioP1;P1;durP2;ratioP2;P2;SDS_P1;SDS_P2;PMS_P1;PMS_P2;Temp;Humidity;BMP_temperature;BMP_pressure;BME280_temperature;BME280_humidity;BME280_pressure;Samples;Min_cycle;Max_cycle;Signal;HPM_P1;HPM_P2
2023/01/31 00:01:21;;;;;;;11.30;4.32;;;8.30;99.90;;;;;;5074233;28;20183;-80
2023/01/31 00:03:51;;;;;;;14.23;4.45;;;8.30;99.90;;;;;;5071269;28;20172;-79
2023/01/31 00:06:25;;;;;;;11.35;3.35;;;8.30;99.90;;;;;;5070089;28;20196;-79
2023/01/31 00:08:54;;;;;;;15.48;3.55;;;8.30;99.90;;;;;;5070976;28;20178;-79
2023/01/31 00:11:23;;;;;;;11.57;2.72;;;8.20;99.90;;;;;;5070120;28;20176;-80
2023/01/31 00:13:50;;;;;;;11.50;2.42;;;8.20;99.90;;;;;;5069868;28;20207;-80
2023/01/31 00:16:17;;;;;;;9.95;2.53;;;8.20;99.90;;;;;;5070624;28;20196;-80
2023/01/31 00:18:44;;;;;;;8.93;2.55;;;8.20;99.90;;;;;;5070872;28;20167;-79
2023/01/31 00:21:23;;;;;;;10.43;1.70;;;8.30;99.90;;;;;;5069215;28;20682;-80
2023/01/31 00:23:50;;;;;;;8.40;2.13;;;8.30;99.90;;;;;;5070977;28;20183;-79
2023/01/31 00:26:25;;;;;;;14.80;2.90;;;8.30;99.90;;;;;;5069344;28;20994;-80
2023/01/31 00:28:53;;;;;;;8.30;1.55;;;8.30;99.90;;;;;;5071701;28;20183;-80
2023/01/31 00:31:20;;;;;;;6.03;2.10;;;8.30;99.90;;;;;;5073226;28;20188;-79
2023/01/31 00:33:49;;;;;;;5.80;1.60;;;8.30;99.90;;;;;;5074796;28;20192;-80
2023/01/31 00:36:21;;;;;;;4.57;2.03;;;8.30;99.90;;;;;;5068954;28;20698;-80
2023/01/31 00:38:56;;;;;;;9.23;2.17;;;8.30;99.90;;;;;;5062437;28;20168;-79
2023/01/31 00:41:23;;;;;;;12.15;2.65;;;8.30;99.90;;;;;;5063544;28;20183;-79
2023/01/31 00:43:49;;;;;;;8.90;1.70;;;8.30;99.90;;;;;;5044878;28;20549;-79
2023/01/31 00:46:16;;;;;;;12.27;2.17;;;8.30;99.90;;;;;;5058190;28;20673;-80
2023/01/31 00:48:41;;;;;;;10.15;2.03;;;8.30;99.90;;;;;;5060478;28;20181;-80
2023/01/31 00:51:07;;;;;;;6.80;2.20;;;8.30;99.90;;;;;;5067774;28;20253;-79
2023/01/31 00:53:33;;;;;;;17.87;1.90;;;8.30;99.90;;;;;;5072818;28;20300;-79
2023/01/31 00:56:11;;;;;;;10.20;2.60;;;8.30;99.90;;;;;;5074689;28;20233;-79
2023/01/31 00:58:38;;;;;;;12.52;1.80;;;8.30;99.90;;;;;;5073799;28;20179;-80
2023/01/31 01:01:08;;;;;;;10.88;2.17;;;8.20;99.90;;;;;;5073234;28;20172;-80
2023/01/31 01:03:35;;;;;;;6.00;1.63;;;8.20;99.90;;;;;;5056212;28;20172;-80
2023/01/31 01:06:01;;;;;;;8.35;1.80;;;8.10;99.90;;;;;;5072938;28;20253;-79
2023/01/31 01:08:28;;;;;;;10.00;2.13;;;8.10;99.90;;;;;;5074309;28;20176;-80
2023/01/31 01:10:54;;;;;;;9.25;1.90;;;8.00;99.90;;;;;;5073141;28;20583;-79
2023/01/31 01:13:21;;;;;;;8.50;2.85;;;7.90;99.90;;;;;;5056018;28;20285;-79
2023/01/31 01:15:46;;;;;;;8.77;2.10;;;7.80;99.90;;;;;;5078329;28;20200;-79
2023/01/31 01:18:12;;;;;;;5.57;1.73;;;7.80;99.90;;;;;;5074343;28;20267;-79
2023/01/31 01:20:41;;;;;;;6.00;1.67;;;7.70;99.90;;;;;;5073398;28;20621;-79
2023/01/31 01:23:07;;;;;;;9.35;2.08;;;7.60;99.90;;;;;;5055775;28;20199;-79
2023/01/31 01:25:41;;;;;;;9.23;2.07;;;7.60;99.90;;;;;;5055711;28;20238;-80
2023/01/31 01:28:07;;;;;;;4.50;1.35;;;7.60;99.90;;;;;;5072917;28;20641;-79
2023/01/31 01:30:33;;;;;;;10.10;3.25;;;7.60;99.90;;;;;;5055167;28;20168;-80
2023/01/31 01:32:59;;;;;;;9.37;2.70;;;7.60;99.90;;;;;;5073710;28;20241;-80
2023/01/31 01:35:25;;;;;;;10.37;2.47;;;7.60;99.90;;;;;;5072090;28;20204;-80
2023/01/31 01:37:50;;;;;;;9.67;3.03;;;7.50;99.90;;;;;;5055711;28;20176;-80
2023/01/31 01:40:16;;;;;;;7.60;2.10;;;7.50;99.90;;;;;;5070879;28;20176;-80
2023/01/31 01:42:42;;;;;;;4.82;1.33;;;7.60;99.90;;;;;;5071418;28;20271;-79
2023/01/31 01:45:15;;;;;;;11.70;1.90;;;7.60;99.90;;;;;;5072268;28;20956;-79
2023/01/31 01:47:52;;;;;;;8.70;1.73;;;7.60;99.90;;;;;;5055210;28;20279;-79
2023/01/31 01:50:38;;;;;;;5.68;1.35;;;7.60;99.90;;;;;;5071771;28;20215;-79
2023/01/31 01:53:20;;;;;;;4.70;2.50;;;7.60;99.90;;;;;;5059513;28;20196;-79
2023/01/31 01:55:59;;;;;;;5.80;1.75;;;7.60;99.90;;;;;;5073627;28;20184;-78
2023/01/31 01:58:31;;;;;;;4.32;1.35;;;7.60;99.90;;;;;;5055271;28;20178;-78
2023/01/31 02:00:57;;;;;;;6.93;1.65;;;7.60;99.90;;;;;;5070566;28;20175;-79
2023/01/31 02:03:23;;;;;;;7.30;1.60;;;7.60;99.90;;;;;;5050198;28;20192;-78
2023/01/31 02:05:56;;;;;;;8.90;1.97;;;7.60;99.90;;;;;;5051668;28;20672;-78
2023/01/31 02:08:24;;;;;;;11.95;2.35;;;7.60;99.90;;;;;;5051494;28;20692;-78
2023/01/31 02:11:20;;;;;;;7.70;1.70;;;7.60;99.90;;;;;;5035068;28;20165;-78
2023/01/31 02:13:51;;;;;;;7.90;1.63;;;7.60;99.90;;;;;;5052040;28;20657;-78
2023/01/31 02:16:17;;;;;;;6.97;1.45;;;7.60;99.90;;;;;;5052897;28;20582;-78
2023/01/31 02:18:45;;;;;;;12.20;2.35;;;7.60;99.90;;;;;;5034648;28;20173;-78
2023/01/31 02:21:32;;;;;;;6.60;1.25;;;7.60;99.90;;;;;;5051782;28;20180;-78
2023/01/31 02:24:35;;;;;;;11.20;1.52;;;7.60;99.90;;;;;;5035351;28;20199;-78
2023/01/31 02:27:20;;;;;;;6.65;1.48;;;7.60;99.90;;;;;;5052995;28;20284;-79
2023/01/31 02:30:23;;;;;;;5.15;1.60;;;7.60;99.90;;;;;;5039423;28;20219;-78
2023/01/31 02:33:24;;;;;;;9.90;1.40;;;7.60;99.90;;;;;;5051261;28;20579;-78
2023/01/31 02:36:02;;;;;;;8.75;1.67;;;7.50;99.90;;;;;;5034448;28;20208;-78
2023/01/31 02:38:58;;;;;;;7.75;1.75;;;7.50;99.90;;;;;;5034914;28;20179;-78
2023/01/31 02:41:49;;;;;;;6.30;1.20;;;7.50;99.90;;;;;;5034266;28;20268;-78
2023/01/31 02:47:42;;;;;;;4.32;1.70;;;7.40;99.90;;;;;;5035466;28;20259;-79
2023/01/31 02:50:22;;;;;;;5.32;1.33;;;7.40;99.90;;;;;;5021290;28;20177;-79
2023/01/31 02:52:51;;;;;;;7.07;1.23;;;7.30;99.90;;;;;;5037289;28;20181;-78
2023/01/31 02:58:26;;;;;;;10.05;2.47;;;7.40;99.90;;;;;;5053420;28;20216;-78
2023/01/31 03:00:56;;;;;;;9.02;1.42;;;7.30;99.90;;;;;;5038481;28;20185;-79
2023/01/31 03:03:31;;;;;;;8.68;1.40;;;7.30;99.90;;;;;;5054123;28;20268;-79
2023/01/31 03:06:24;;;;;;;8.02;1.88;;;7.30;99.90;;;;;;5054717;28;20645;-79
2023/01/31 03:09:04;;;;;;;7.07;2.05;;;7.20;99.90;;;;;;5040284;28;20177;-80
2023/01/31 03:12:04;;;;;;;5.75;1.33;;;7.20;99.90;;;;;;5034264;28;20602;-79
2023/01/31 03:14:37;;;;;;;6.22;1.55;;;7.20;99.90;;;;;;5022232;28;20212;-80
2023/01/31 03:17:32;;;;;;;4.72;1.48;;;7.20;99.90;;;;;;5034382;28;20527;-80
2023/01/31 03:20:00;;;;;;;6.78;1.85;;;7.10;99.90;;;;;;5049923;28;20169;-80
2023/01/31 03:22:34;;;;;;;6.32;1.70;;;7.10;99.90;;;;;;5033888;28;20200;-80
2023/01/31 03:25:02;;;;;;;12.80;1.95;;;7.00;99.90;;;;;;5050390;28;20602;-80
2023/01/31 03:27:28;;;;;;;6.97;1.65;;;7.00;99.90;;;;;;5034171;28;20172;-79
2023/01/31 03:30:08;;;;;;;11.55;1.90;;;6.90;99.90;;;;;;5049940;28;20181;-79
2023/01/31 03:32:42;;;;;;;4.95;1.25;;;6.80;99.90;;;;;;5050398;28;20173;-79
2023/01/31 03:35:08;;;;;;;4.78;1.83;;;6.80;99.90;;;;;;5050641;28;20240;-79
2023/01/31 03:37:40;;;;;;;5.90;1.63;;;6.70;99.90;;;;;;5034189;28;20665;-78
2023/01/31 03:40:24;;;;;;;10.25;1.70;;;6.60;99.90;;;;;;5051173;28;20235;-80
2023/01/31 03:42:58;;;;;;;4.53;1.40;;;6.60;99.90;;;;;;5050536;28;20184;-79
2023/01/31 03:45:57;;;;;;;4.70;1.60;;;6.50;99.90;;;;;;5038028;28;20192;-80
2023/01/31 03:48:30;;;;;;;5.35;1.48;;;6.40;99.90;;;;;;5036217;28;20546;-80
2023/01/31 03:50:59;;;;;;;5.18;1.20;;;6.30;99.90;;;;;;5050572;28;20231;-79
2023/01/31 03:53:40;;;;;;;8.13;1.75;;;6.30;99.90;;;;;;5050313;28;20196;-79
2023/01/31 03:56:15;;;;;;;8.30;1.98;;;6.20;99.90;;;;;;5017634;28;20188;-79
2023/01/31 03:58:49;;;;;;;6.15;1.40;;;6.10;99.90;;;;;;5033699;28;20184;-79
2023/01/31 04:01:18;;;;;;;6.72;1.75;;;6.10;99.90;;;;;;5017361;28;20264;-79
2023/01/31 04:04:06;;;;;;;4.95;1.75;;;6.10;99.90;;;;;;5049609;28;20181;-79
2023/01/31 04:06:33;;;;;;;8.50;1.90;;;6.00;99.90;;;;;;5033693;28;20291;-80
2023/01/31 04:08:59;;;;;;;7.80;1.60;;;6.00;99.90;;;;;;5033505;28;20693;-79
2023/01/31 04:11:26;;;;;;;6.05;2.10;;;5.90;99.90;;;;;;5034118;28;20264;-79
2023/01/31 04:13:52;;;;;;;6.45;2.42;;;5.90;99.90;;;;;;5050005;28;20207;-79
2023/01/31 04:16:18;;;;;;;6.25;2.30;;;5.90;99.90;;;;;;5052097;28;20209;-79
2023/01/31 04:18:44;;;;;;;5.63;1.87;;;5.80;99.90;;;;;;5051150;28;20251;-79
2023/01/31 04:21:10;;;;;;;5.13;1.77;;;5.80;99.90;;;;;;5055849;28;20699;-79
2023/01/31 04:23:35;;;;;;;10.33;2.40;;;5.70;99.90;;;;;;5034461;28;20587;-79
2023/01/31 04:26:01;;;;;;;6.80;2.50;;;5.70;99.90;;;;;;5050442;28;20550;-79
2023/01/31 04:28:27;;;;;;;9.37;2.43;;;5.70;99.90;;;;;;5050980;28;20176;-79
2023/01/31 04:30:55;;;;;;;10.27;2.13;;;5.70;99.90;;;;;;5033264;28;20260;-79
2023/01/31 04:33:20;;;;;;;8.00;2.38;;;5.60;99.90;;;;;;5017832;28;20188;-79
2023/01/31 04:35:46;;;;;;;7.70;2.00;;;5.60;99.90;;;;;;5034081;28;20189;-78
2023/01/31 04:38:12;;;;;;;5.10;1.93;;;5.60;99.90;;;;;;5050589;28;20583;-80
2023/01/31 04:40:38;;;;;;;6.80;2.27;;;5.60;99.90;;;;;;5050877;28;20882;-79
2023/01/31 04:43:04;;;;;;;8.83;2.03;;;5.50;99.90;;;;;;5050070;28;21123;-79
2023/01/31 04:45:29;;;;;;;7.97;1.90;;;5.50;99.90;;;;;;5050431;28;20221;-80
2023/01/31 04:47:55;;;;;;;6.50;2.00;;;5.50;99.90;;;;;;5051658;28;20189;-80
2023/01/31 04:50:21;;;;;;;6.10;1.80;;;5.50;99.90;;;;;;5050001;28;20177;-79
2023/01/31 04:52:50;;;;;;;5.93;1.50;;;5.40;99.90;;;;;;5051534;28;20181;-79
2023/01/31 04:55:17;;;;;;;8.23;1.75;;;5.40;99.90;;;;;;5050211;28;20236;-79
2023/01/31 04:57:43;;;;;;;7.10;2.00;;;5.40;99.90;;;;;;5050418;28;20173;-80
2023/01/31 05:00:09;;;;;;;8.40;2.30;;;5.40;99.90;;;;;;5040820;28;20661;-80
2023/01/31 05:02:35;;;;;;;10.13;1.85;;;5.30;99.90;;;;;;5051345;28;20165;-79
2023/01/31 05:05:02;;;;;;;8.52;2.35;;;5.30;99.90;;;;;;5051586;28;21822;-79
2023/01/31 05:07:27;;;;;;;9.82;2.05;;;5.30;99.90;;;;;;5050359;28;20195;-79
2023/01/31 05:09:53;;;;;;;6.27;1.83;;;5.30;99.90;;;;;;5049870;28;20184;-79
2023/01/31 05:12:19;;;;;;;5.20;1.70;;;5.30;99.90;;;;;;5051163;28;20177;-79
2023/01/31 05:14:45;;;;;;;6.93;2.63;;;5.30;99.90;;;;;;5052007;28;20236;-79
2023/01/31 05:17:10;;;;;;;8.73;2.20;;;5.30;99.90;;;;;;5054143;28;20579;-79
2023/01/31 05:19:36;;;;;;;9.53;2.50;;;5.30;99.90;;;;;;5054538;28;20176;-80
2023/01/31 05:22:02;;;;;;;8.40;2.53;;;5.20;99.90;;;;;;5054427;28;20568;-78
2023/01/31 05:24:31;;;;;;;6.65;2.13;;;5.20;99.90;;;;;;5057342;28;20179;-79
2023/01/31 05:27:00;;;;;;;7.25;2.20;;;5.20;99.90;;;;;;5053352;28;20201;-79
2023/01/31 05:29:28;;;;;;;9.35;3.05;;;5.20;99.90;;;;;;5054996;28;20177;-80
2023/01/31 05:31:55;;;;;;;9.48;3.45;;;5.30;99.90;;;;;;5058524;28;20640;-80
2023/01/31 05:34:24;;;;;;;6.68;3.10;;;5.30;99.90;;;;;;5037954;28;20634;-80
2023/01/31 05:36:50;;;;;;;10.05;3.88;;;5.30;99.90;;;;;;5059065;28;20203;-79
2023/01/31 05:39:16;;;;;;;13.52;3.63;;;5.40;99.90;;;;;;5053456;28;20184;-80
2023/01/31 05:41:42;;;;;;;6.60;2.83;;;5.40;99.90;;;;;;5052607;28;20765;-79
2023/01/31 05:44:08;;;;;;;6.37;3.03;;;5.50;99.90;;;;;;5054017;28;20175;-81
2023/01/31 05:46:34;;;;;;;13.15;3.33;;;5.60;99.90;;;;;;5054031;28;20649;-80
2023/01/31 05:48:59;;;;;;;12.57;4.07;;;5.70;99.90;;;;;;5053529;28;20181;-80
2023/01/31 05:51:25;;;;;;;6.50;3.20;;;5.70;99.90;;;;;;5055138;28;20575;-80
2023/01/31 05:53:51;;;;;;;7.00;3.00;;;5.80;99.90;;;;;;5052600;28;20595;-80
2023/01/31 05:56:16;;;;;;;7.83;2.70;;;5.90;99.90;;;;;;5052912;28;20974;-80
2023/01/31 05:58:42;;;;;;;10.67;3.33;;;5.90;99.90;;;;;;5052636;28;20173;-80
2023/01/31 06:01:08;;;;;;;10.73;3.33;;;6.00;99.90;;;;;;5053108;28;20599;-81
2023/01/31 06:03:34;;;;;;;6.20;3.47;;;6.10;99.90;;;;;;5053147;28;20571;-80
2023/01/31 06:06:04;;;;;;;10.23;3.47;;;6.10;99.90;;;;;;5053491;28;20624;-81
2023/01/31 06:08:29;;;;;;;9.30;3.03;;;6.20;99.90;;;;;;5055135;28;20806;-80
2023/01/31 06:10:55;;;;;;;15.70;3.63;;;6.20;99.90;;;;;;5055326;28;20184;-80
2023/01/31 06:13:20;;;;;;;11.17;3.23;;;6.30;99.90;;;;;;5056474;28;20188;-82
2023/01/31 06:15:48;;;;;;;9.40;3.30;;;6.30;99.90;;;;;;5056700;28;20204;-79
2023/01/31 06:18:14;;;;;;;8.48;3.80;;;6.40;99.90;;;;;;5057272;28;20173;-79
2023/01/31 06:20:39;;;;;;;6.57;2.43;;;6.40;99.90;;;;;;5039935;28;20680;-79
2023/01/31 06:23:05;;;;;;;10.13;3.23;;;6.40;99.90;;;;;;5057994;28;20169;-81
2023/01/31 06:25:31;;;;;;;10.97;3.57;;;6.50;99.90;;;;;;5053639;28;20665;-80
2023/01/31 06:27:56;;;;;;;16.63;3.40;;;6.50;99.90;;;;;;5054013;28;20963;-80
2023/01/31 06:30:22;;;;;;;7.60;2.70;;;6.50;99.90;;;;;;5054068;28;20179;-79
2023/01/31 06:32:48;;;;;;;9.40;2.87;;;6.60;99.90;;;;;;5052057;28;20254;-79
2023/01/31 06:35:13;;;;;;;6.43;2.97;;;6.60;99.90;;;;;;5035878;28;20216;-80
2023/01/31 06:37:39;;;;;;;10.13;3.00;;;6.60;99.90;;;;;;5052071;28;20179;-79
2023/01/31 06:40:05;;;;;;;6.40;2.90;;;6.70;99.90;;;;;;5052013;28;20586;-80
2023/01/31 06:42:31;;;;;;;10.07;3.38;;;6.70;99.90;;;;;;5051334;28;20590;-80
2023/01/31 06:44:57;;;;;;;11.20;3.23;;;6.70;99.90;;;;;;5051106;28;20165;-79
2023/01/31 06:47:22;;;;;;;14.63;3.60;;;6.80;99.90;;;;;;5050715;28;20215;-80
2023/01/31 06:49:48;;;;;;;9.40;3.30;;;6.80;99.90;;;;;;5055097;28;20705;-80
2023/01/31 06:52:14;;;;;;;18.33;3.13;;;6.90;99.90;;;;;;5052277;28;20176;-79
2023/01/31 06:54:40;;;;;;;7.67;2.90;;;6.90;99.90;;;;;;5053292;28;20236;-79
2023/01/31 06:57:06;;;;;;;10.48;2.65;;;7.00;99.90;;;;;;5034677;28;20657;-79
2023/01/31 06:59:32;;;;;;;14.30;4.17;;;7.00;99.90;;;;;;5050181;28;20193;-79
2023/01/31 07:01:57;;;;;;;9.93;3.27;;;7.00;99.90;;;;;;5050005;28;21010;-80
2023/01/31 07:04:23;;;;;;;7.37;2.63;;;7.00;99.90;;;;;;5050961;28;20173;-80
2023/01/31 07:06:49;;;;;;;6.13;2.20;;;7.10;99.90;;;;;;5059057;28;20223;-80
2023/01/31 07:09:14;;;;;;;6.27;2.00;;;7.10;99.90;;;;;;5050334;28;20579;-80
2023/01/31 07:11:40;;;;;;;6.23;2.37;;;7.20;99.90;;;;;;5049945;28;20552;-80
2023/01/31 07:14:06;;;;;;;7.90;2.60;;;7.20;99.90;;;;;;5050656;28;20232;-80
2023/01/31 07:16:31;;;;;;;8.93;2.20;;;7.20;99.90;;;;;;5051869;28;20204;-79
2023/01/31 07:18:57;;;;;;;8.30;3.33;;;7.30;99.90;;;;;;5051792;28;20207;-79
2023/01/31 07:21:25;;;;;;;9.07;2.00;;;7.30;99.90;;;;;;5050425;28;20168;-81
2023/01/31 07:23:51;;;;;;;8.98;2.58;;;7.30;99.90;;;;;;5050548;28;20180;-80
2023/01/31 07:26:17;;;;;;;6.95;1.85;;;7.40;99.90;;;;;;5052100;28;20199;-80
2023/01/31 07:28:42;;;;;;;6.30;2.33;;;7.40;99.90;;;;;;5055782;28;20215;-80
2023/01/31 07:31:13;;;;;;;7.30;2.60;;;7.50;99.90;;;;;;5051929;28;20575;-80
2023/01/31 07:33:39;;;;;;;9.55;3.08;;;7.50;99.90;;;;;;5051514;28;20197;-80
2023/01/31 07:36:06;;;;;;;8.73;2.45;;;7.60;99.90;;;;;;5052103;28;20199;-80
2023/01/31 07:38:33;;;;;;;10.55;2.42;;;7.60;99.90;;;;;;5050463;28;20181;-80
2023/01/31 07:41:00;;;;;;;7.38;2.65;;;7.60;99.90;;;;;;5053752;28;20570;-81
2023/01/31 07:43:26;;;;;;;9.68;2.38;;;7.70;99.90;;;;;;5051387;28;20165;-79
2023/01/31 07:45:53;;;;;;;8.53;2.40;;;7.70;99.90;;;;;;5050663;28;20192;-79
2023/01/31 07:48:22;;;;;;;13.07;2.55;;;7.70;99.90;;;;;;5051430;28;20175;-79
2023/01/31 07:50:59;;;;;;;10.00;2.40;;;7.80;99.90;;;;;;5049425;28;20271;-77
2023/01/31 07:53:27;;;;;;;10.68;3.05;;;7.80;99.90;;;;;;5049777;28;20218;-77
2023/01/31 07:55:53;;;;;;;6.13;2.38;;;7.90;99.90;;;;;;5050776;28;20231;-77
2023/01/31 07:58:19;;;;;;;11.83;2.27;;;7.90;99.90;;;;;;5053898;28;20200;-77
2023/01/31 08:03:33;;;;;;;7.25;2.15;;;8.00;99.90;;;;;;5053893;28;20173;-81
2023/01/31 08:06:07;;;;;;;4.60;2.70;;;8.10;99.90;;;;;;5050779;28;20528;-81
2023/01/31 08:08:34;;;;;;;10.25;1.98;;;8.10;99.90;;;;;;5051098;28;20176;-80
2023/01/31 08:11:00;;;;;;;8.18;2.47;;;8.20;99.90;;;;;;5051829;28;20224;-80
2023/01/31 08:13:27;;;;;;;9.57;2.30;;;8.20;99.90;;;;;;5050911;28;20589;-80
2023/01/31 08:15:53;;;;;;;12.17;1.77;;;8.30;99.90;;;;;;5049009;28;20236;-81
2023/01/31 08:18:19;;;;;;;7.43;1.75;;;8.30;99.90;;;;;;5049645;28;20192;-81
2023/01/31 08:20:44;;;;;;;8.52;2.42;;;8.30;99.90;;;;;;5032180;28;20619;-81
2023/01/31 08:23:10;;;;;;;15.97;2.87;;;8.40;99.90;;;;;;5050450;28;20268;-80
2023/01/31 08:25:36;;;;;;;7.53;2.30;;;8.40;99.90;;;;;;5049829;28;20275;-80
2023/01/31 08:28:02;;;;;;;6.77;1.80;;;8.40;99.90;;;;;;5050820;28;20259;-80
2023/01/31 08:30:28;;;;;;;3.60;1.30;;;8.50;99.90;;;;;;5049638;28;20633;-79
2023/01/31 08:32:55;;;;;;;5.32;1.58;;;8.50;99.90;;;;;;5032668;28;20599;-81
2023/01/31 08:35:20;;;;;;;9.38;2.30;;;8.60;99.90;;;;;;5052177;28;20284;-80
2023/01/31 08:37:46;;;;;;;8.87;1.90;;;8.70;99.90;;;;;;5055280;28;20220;-81
2023/01/31 08:40:12;;;;;;;10.70;2.57;;;8.70;99.90;;;;;;5054071;28;20165;-80
2023/01/31 08:42:38;;;;;;;8.60;2.80;;;8.80;99.90;;;;;;5056965;28;20606;-78
2023/01/31 08:45:05;;;;;;;5.97;2.10;;;8.90;99.90;;;;;;5054187;28;20643;-80
2023/01/31 08:47:32;;;;;;;5.60;1.67;;;8.90;99.90;;;;;;5040158;28;20185;-80
2023/01/31 08:49:58;;;;;;;7.55;1.52;;;9.00;99.90;;;;;;5058073;28;20550;-78
2023/01/31 08:52:23;;;;;;;7.53;1.77;;;9.10;99.90;;;;;;5054463;28;20169;-77
2023/01/31 08:54:49;;;;;;;10.83;3.13;;;9.10;99.90;;;;;;5053916;28;20660;-77
2023/01/31 08:57:15;;;;;;;10.93;2.20;;;9.20;99.90;;;;;;5054423;28;20176;-77
2023/01/31 08:59:40;;;;;;;9.17;2.57;;;9.20;99.90;;;;;;5053895;28;20192;-80
2023/01/31 09:02:08;;;;;;;4.67;1.47;;;9.20;99.90;;;;;;5053417;28;20211;-79
2023/01/31 09:04:34;;;;;;;7.85;1.88;;;9.20;99.90;;;;;;5057938;28;20180;-80
2023/01/31 09:07:00;;;;;;;6.30;1.67;;;9.30;99.90;;;;;;5054261;28;20672;-79
2023/01/31 09:09:26;;;;;;;10.00;1.95;;;9.30;99.90;;;;;;5056376;28;20169;-80
2023/01/31 09:11:52;;;;;;;8.03;1.93;;;9.30;99.90;;;;;;5054827;28;20175;-79
2023/01/31 09:14:18;;;;;;;6.67;1.93;;;9.40;99.90;;;;;;5060651;28;20221;-79
2023/01/31 09:16:45;;;;;;;8.40;1.87;;;9.40;99.90;;;;;;5059093;28;20669;-79
2023/01/31 09:19:11;;;;;;;6.35;2.15;;;9.40;99.90;;;;;;5058808;28;20172;-79
2023/01/31 09:21:37;;;;;;;6.82;1.80;;;9.40;99.90;;;;;;5052737;28;20218;-80
2023/01/31 09:24:03;;;;;;;11.43;2.55;;;9.40;99.90;;;;;;5054986;28;20184;-80
2023/01/31 09:26:30;;;;;;;5.63;1.77;;;9.30;99.90;;;;;;5019383;28;20196;-80
2023/01/31 09:28:57;;;;;;;5.35;2.30;;;9.30;99.90;;;;;;5053966;28;20534;-81
2023/01/31 09:31:23;;;;;;;7.53;1.70;;;9.30;99.90;;;;;;5049607;28;20276;-80
2023/01/31 09:33:49;;;;;;;6.18;1.60;;;9.30;99.90;;;;;;5060999;28;20580;-80
2023/01/31 09:36:20;;;;;;;5.03;1.80;;;9.40;99.90;;;;;;5048484;28;20192;-80
2023/01/31 09:38:47;;;;;;;7.45;2.20;;;9.40;99.90;;;;;;5071525;28;20941;-80
2023/01/31 09:41:21;;;;;;;6.80;1.92;;;9.40;99.90;;;;;;5053661;28;20280;-83
2023/01/31 09:44:00;;;;;;;7.05;2.40;;;9.40;99.90;;;;;;5053514;28;20601;-80
2023/01/31 09:46:32;;;;;;;6.10;1.90;;;9.50;99.90;;;;;;5052071;28;20258;-79
2023/01/31 09:49:04;;;;;;;5.40;2.00;;;9.50;99.90;;;;;;5046810;28;20617;-80
2023/01/31 09:51:32;;;;;;;10.18;2.30;;;9.60;99.90;;;;;;5056965;28;20228;-78
2023/01/31 09:54:00;;;;;;;3.67;1.33;;;9.60;99.90;;;;;;5052786;28;20196;-80
2023/01/31 09:56:41;;;;;;;6.55;1.77;;;9.70;99.90;;;;;;5056641;28;20192;-79
2023/01/31 09:59:24;;;;;;;8.27;1.98;;;9.70;99.90;;;;;;5052876;28;20184;-80
2023/01/31 10:02:04;;;;;;;9.20;1.90;;;9.70;99.90;;;;;;5051530;28;20260;-79
2023/01/31 10:04:57;;;;;;;8.00;1.90;;;9.80;99.90;;;;;;5051736;28;20234;-80
2023/01/31 10:07:31;;;;;;;6.50;2.50;;;9.80;99.90;;;;;;5052051;28;20208;-81
2023/01/31 10:10:04;;;;;;;10.52;3.20;;;9.80;99.90;;;;;;5052558;28;20184;-81
2023/01/31 10:12:44;;;;;;;7.88;2.88;;;9.90;99.90;;;;;;5053362;28;20185;-82
2023/01/31 10:15:21;;;;;;;11.10;2.20;;;9.90;99.90;;;;;;5052225;28;20212;-83
2023/01/31 10:17:58;;;;;;;22.17;4.88;;;9.90;99.90;;;;;;5053292;28;20173;-82
2023/01/31 10:20:38;;;;;;;8.63;3.15;;;9.90;99.90;;;;;;5052730;28;20184;-80
2023/01/31 10:23:12;;;;;;;11.98;3.08;;;9.90;99.90;;;;;;5051896;28;20534;-81
2023/01/31 10:25:43;;;;;;;8.80;3.70;;;9.90;99.90;;;;;;5052967;28;20284;-80
2023/01/31 10:28:17;;;;;;;9.85;4.68;;;9.90;99.90;;;;;;5051602;28;20177;-80
2023/01/31 10:30:50;;;;;;;12.73;3.00;;;9.90;99.90;;;;;;5050703;28;20267;-80
2023/01/31 10:33:45;;;;;;;11.50;4.15;;;10.00;99.90;;;;;;5057401;28;20172;-80
2023/01/31 10:36:32;;;;;;;15.55;4.10;;;10.00;99.90;;;;;;5052831;28;20197;-80
2023/01/31 10:39:05;;;;;;;9.68;3.58;;;10.00;99.90;;;;;;5051921;28;20222;-80
2023/01/31 10:41:42;;;;;;;5.90;3.00;;;10.10;99.90;;;;;;5051083;28;20259;-80
2023/01/31 10:44:23;;;;;;;9.35;3.90;;;10.10;99.90;;;;;;5052588;28;20626;-79
2023/01/31 10:46:51;;;;;;;6.25;2.70;;;10.10;99.90;;;;;;5049892;28;20262;-80
2023/01/31 10:49:21;;;;;;;6.28;2.10;;;10.20;99.90;;;;;;5046914;28;20188;-79
2023/01/31 10:52:05;;;;;;;7.90;2.40;;;10.20;99.90;;;;;;5045127;28;20231;-80
2023/01/31 10:54:42;;;;;;;13.80;2.55;;;10.20;99.90;;;;;;5052002;28;20208;-80
2023/01/31 10:57:08;;;;;;;7.25;3.05;;;10.20;99.90;;;;;;5051216;28;20217;-79
2023/01/31 10:59:43;;;;;;;8.40;2.80;;;10.20;99.90;;;;;;5050258;28;20211;-81
2023/01/31 11:02:23;;;;;;;10.60;1.90;;;10.20;99.90;;;;;;5052085;28;20176;-80
2023/01/31 11:04:51;;;;;;;8.68;2.90;;;10.30;99.90;;;;;;5052129;28;20191;-80
2023/01/31 11:07:17;;;;;;;8.45;2.88;;;10.30;99.90;;;;;;5052625;28;20177;-80
2023/01/31 11:09:50;;;;;;;9.10;3.05;;;10.40;99.90;;;;;;5055961;28;20577;-80
2023/01/31 11:12:17;;;;;;;10.40;2.88;;;10.40;99.90;;;;;;5051281;28;20173;-80
2023/01/31 11:14:42;;;;;;;12.25;3.13;;;10.50;99.90;;;;;;5052403;28;20197;-81
2023/01/31 11:17:21;;;;;;;6.90;2.70;;;10.50;99.90;;;;;;5052423;28;20683;-80
2023/01/31 11:19:54;;;;;;;7.38;2.10;;;10.60;99.90;;;;;;5050664;28;20188;-79
2023/01/31 11:22:26;;;;;;;9.05;3.10;;;10.60;99.90;;;;;;5052333;28;20188;-80
2023/01/31 11:24:53;;;;;;;11.20;3.45;;;10.70;99.90;;;;;;5054929;28;20518;-80
2023/01/31 11:27:32;;;;;;;7.07;2.42;;;10.70;99.90;;;;;;5051638;28;20181;-81
2023/01/31 11:29:59;;;;;;;7.63;2.85;;;10.80;99.90;;;;;;5053271;28;20678;-81
2023/01/31 11:32:28;;;;;;;9.20;2.75;;;10.80;99.90;;;;;;5051007;28;20181;-80
2023/01/31 11:35:03;;;;;;;8.75;2.60;;;10.90;99.90;;;;;;5052260;28;20208;-80
2023/01/31 11:37:30;;;;;;;7.88;3.50;;;11.00;99.90;;;;;;5050136;28;20259;-79
2023/01/31 11:40:13;;;;;;;13.40;3.65;;;11.10;99.90;;;;;;5050153;28;20188;-80
2023/01/31 11:42:53;;;;;;;7.03;2.33;;;11.10;99.90;;;;;;5049523;28;20184;-79
2023/01/31 11:45:27;;;;;;;8.38;2.58;;;11.20;99.90;;;;;;5052070;28;20279;-78
2023/01/31 11:47:56;;;;;;;6.82;1.98;;;11.20;99.90;;;;;;5051208;28;20176;-80
2023/01/31 11:50:46;;;;;;;9.20;2.30;;;11.30;99.90;;;;;;5051269;28;20177;-79
2023/01/31 11:53:17;;;;;;;7.45;2.80;;;11.30;99.90;;;;;;5045177;28;20182;-78
2023/01/31 11:55:46;;;;;;;7.95;2.92;;;11.30;99.90;;;;;;5040071;28;20212;-80
2023/01/31 11:58:22;;;;;;;7.60;4.05;;;11.40;99.90;;;;;;5047607;28;20224;-80
2023/01/31 12:00:55;;;;;;;4.78;2.05;;;11.40;99.90;;;;;;5048232;28;20173;-79
2023/01/31 12:03:21;;;;;;;5.65;2.30;;;11.40;99.90;;;;;;5055813;28;20173;-81
2023/01/31 12:06:03;;;;;;;5.60;2.08;;;11.50;99.90;;;;;;5072290;28;20197;-80
2023/01/31 12:08:42;;;;;;;9.38;2.15;;;11.50;99.90;;;;;;5065070;28;20184;-81
2023/01/31 12:11:17;;;;;;;5.75;2.42;;;11.50;99.90;;;;;;5056879;28;20180;-81
2023/01/31 12:13:59;;;;;;;7.50;1.90;;;11.50;99.90;;;;;;5055874;28;20238;-81
2023/01/31 12:16:29;;;;;;;7.65;1.80;;;11.50;99.90;;;;;;5051793;28;20204;-80
2023/01/31 12:19:10;;;;;;;6.43;2.00;;;11.50;99.90;;;;;;5051013;28;20529;-78
2023/01/31 12:22:02;;;;;;;3.65;1.70;;;11.50;99.90;;;;;;5032658;28;20183;-79
2023/01/31 12:24:31;;;;;;;5.35;2.17;;;11.40;99.90;;;;;;5024261;28;20195;-80
2023/01/31 12:27:02;;;;;;;5.53;2.38;;;11.40;99.90;;;;;;5053433;28;20211;-80
2023/01/31 12:29:37;;;;;;;4.53;2.20;;;11.40;99.90;;;;;;5053319;28;20176;-76
2023/01/31 12:32:24;;;;;;;7.88;2.50;;;11.40;99.90;;;;;;5053080;28;20225;-81
2023/01/31 12:35:28;;;;;;;4.32;1.90;;;11.30;99.90;;;;;;5055478;28;20274;-81
2023/01/31 12:38:13;;;;;;;3.17;1.75;;;11.30;99.90;;;;;;5058295;28;20191;-81
2023/01/31 12:41:08;;;;;;;5.75;2.20;;;11.20;99.90;;;;;;5039343;28;20605;-81
2023/01/31 12:43:33;;;;;;;2.90;1.55;;;11.20;99.90;;;;;;5032876;28;20201;-82
2023/01/31 12:46:16;;;;;;;4.13;1.87;;;11.20;99.90;;;;;;5034472;28;20864;-79
2023/01/31 12:49:07;;;;;;;5.07;2.03;;;11.10;99.90;;;;;;5032562;28;20260;-78
2023/01/31 12:51:58;;;;;;;6.22;2.15;;;11.10;99.90;;;;;;5034801;28;20166;-78
2023/01/31 12:54:51;;;;;;;5.85;2.55;;;11.00;99.90;;;;;;5037145;28;20215;-78
2023/01/31 12:57:29;;;;;;;4.35;2.17;;;11.00;99.90;;;;;;5054297;28;20177;-78
2023/01/31 13:00:41;;;;;;;7.15;2.55;;;11.00;99.90;;;;;;5053215;28;20173;-78
2023/01/31 13:03:38;;;;;;;5.18;2.40;;;11.00;99.90;;;;;;5055796;28;20185;-78
2023/01/31 13:06:25;;;;;;;8.88;2.50;;;11.00;99.90;;;;;;5052897;28;20196;-78
2023/01/31 13:09:10;;;;;;;5.63;2.65;;;10.90;99.90;;;;;;5052340;28;20177;-79
2023/01/31 13:11:41;;;;;;;6.70;2.72;;;10.90;99.90;;;;;;5052400;28;20702;-78
2023/01/31 13:14:19;;;;;;;7.97;4.40;;;10.90;99.90;;;;;;5052467;28;20200;-78
2023/01/31 13:16:47;;;;;;;7.43;4.57;;;10.90;99.90;;;;;;5053561;28;20219;-78
2023/01/31 13:19:28;;;;;;;8.27;4.22;;;10.80;99.90;;;;;;5053529;28;20204;-78
2023/01/31 13:21:59;;;;;;;9.75;4.07;;;10.80;99.90;;;;;;5053444;28;20871;-79
2023/01/31 13:24:35;;;;;;;7.05;3.03;;;10.70;99.90;;;;;;5052083;28;20598;-79